Keith, Illinois
Current Conditions -  °F | °C
As of 11:55 PM on Saturday 22 Nov 2014 (Local Time) from KFOA Reporting Station
Clear Clear  
Wind Chill: 12°   Ceiling: Unl
Heat Index: 12°   Visibility: 10mi
Dew Point:   Wind: 10mph
Humidity: 61%   Direction: 180°S
Pressure: 29.94"   Gusts: NA
Location:  38.5816°N, 88.4678°W
Report Text: KFOA 230555Z AUTO 18009KT 10SM CLR 12/04 A2994 RMK AO2 T01160042 10129 20101 401660021
Loading
Personal Weather Stations






























Interactive Weather Map New forecast layout! Learn more

10-Day Weather Forecast

Advertisements
Track Severe Weather on mobile